sensor_id;sensor_type;location;lat;lon;timestamp;P1;durP1;ratioP1;P2;durP2;ratioP2
75437;SDS011;64015;49.392;15.582;2023-05-02T00:00:12;7.30;;;5.15;;
75437;SDS011;64015;49.392;15.582;2023-05-02T00:02:59;6.00;;;4.30;;
75437;SDS011;64015;49.392;15.582;2023-05-02T00:05:25;7.03;;;4.07;;
75437;SDS011;64015;49.392;15.582;2023-05-02T00:07:51;9.63;;;5.25;;
75437;SDS011;64015;49.392;15.582;2023-05-02T00:10:17;7.53;;;4.20;;
75437;SDS011;64015;49.392;15.582;2023-05-02T00:12:43;8.13;;;5.18;;
75437;SDS011;64015;49.392;15.582;2023-05-02T00:15:08;7.10;;;4.80;;
75437;SDS011;64015;49.392;15.582;2023-05-02T00:17:34;7.90;;;5.50;;
75437;SDS011;64015;49.392;15.582;2023-05-02T00:20:01;7.32;;;4.28;;
75437;SDS011;64015;49.392;15.582;2023-05-02T00:22:28;7.57;;;4.78;;
75437;SDS011;64015;49.392;15.582;2023-05-02T00:24:57;5.68;;;3.83;;
75437;SDS011;64015;49.392;15.582;2023-05-02T00:27:23;8.50;;;5.45;;
75437;SDS011;64015;49.392;15.582;2023-05-02T00:29:49;6.47;;;4.65;;
75437;SDS011;64015;49.392;15.582;2023-05-02T00:32:16;5.97;;;4.13;;
75437;SDS011;64015;49.392;15.582;2023-05-02T00:34:43;7.55;;;5.32;;
75437;SDS011;64015;49.392;15.582;2023-05-02T00:37:08;8.43;;;4.63;;
75437;SDS011;64015;49.392;15.582;2023-05-02T00:39:34;7.50;;;4.60;;
75437;SDS011;64015;49.392;15.582;2023-05-02T00:42:00;8.52;;;5.28;;
75437;SDS011;64015;49.392;15.582;2023-05-02T00:44:26;8.82;;;5.18;;
75437;SDS011;64015;49.392;15.582;2023-05-02T00:46:53;7.32;;;4.65;;
75437;SDS011;64015;49.392;15.582;2023-05-02T00:49:19;7.45;;;4.78;;
75437;SDS011;64015;49.392;15.582;2023-05-02T00:51:45;8.30;;;4.55;;
75437;SDS011;64015;49.392;15.582;2023-05-02T00:54:11;6.85;;;4.57;;
75437;SDS011;64015;49.392;15.582;2023-05-02T00:56:37;8.10;;;4.43;;
75437;SDS011;64015;49.392;15.582;2023-05-02T00:59:04;9.25;;;4.72;;
75437;SDS011;64015;49.392;15.582;2023-05-02T01:01:46;7.35;;;4.35;;
75437;SDS011;64015;49.392;15.582;2023-05-02T01:10:36;7.88;;;4.53;;
75437;SDS011;64015;49.392;15.582;2023-05-02T01:12:34;7.70;;;4.30;;
75437;SDS011;64015;49.392;15.582;2023-05-02T01:15:06;6.95;;;4.25;;
75437;SDS011;64015;49.392;15.582;2023-05-02T01:17:35;7.85;;;4.60;;
75437;SDS011;64015;49.392;15.582;2023-05-02T01:20:04;8.63;;;4.78;;
75437;SDS011;64015;49.392;15.582;2023-05-02T01:22:32;9.05;;;4.13;;
75437;SDS011;64015;49.392;15.582;2023-05-02T01:27:41;8.93;;;5.25;;
75437;SDS011;64015;49.392;15.582;2023-05-02T01:30:16;8.55;;;5.43;;
75437;SDS011;64015;49.392;15.582;2023-05-02T01:32:44;8.88;;;5.03;;
75437;SDS011;64015;49.392;15.582;2023-05-02T01:35:15;7.10;;;4.25;;
75437;SDS011;64015;49.392;15.582;2023-05-02T01:37:42;9.00;;;5.18;;
75437;SDS011;64015;49.392;15.582;2023-05-02T01:40:10;10.32;;;5.55;;
75437;SDS011;64015;49.392;15.582;2023-05-02T01:45:11;7.03;;;4.95;;
75437;SDS011;64015;49.392;15.582;2023-05-02T01:47:38;7.65;;;4.85;;
75437;SDS011;64015;49.392;15.582;2023-05-02T01:50:06;7.35;;;4.75;;
75437;SDS011;64015;49.392;15.582;2023-05-02T01:52:35;10.95;;;5.55;;
75437;SDS011;64015;49.392;15.582;2023-05-02T01:55:02;8.32;;;5.18;;
75437;SDS011;64015;49.392;15.582;2023-05-02T01:57:31;9.90;;;5.70;;
75437;SDS011;64015;49.392;15.582;2023-05-02T01:59:57;9.38;;;5.60;;
75437;SDS011;64015;49.392;15.582;2023-05-02T02:02:24;8.65;;;5.32;;
75437;SDS011;64015;49.392;15.582;2023-05-02T02:04:54;9.07;;;5.85;;
75437;SDS011;64015;49.392;15.582;2023-05-02T02:07:21;7.78;;;5.68;;
75437;SDS011;64015;49.392;15.582;2023-05-02T02:09:47;7.28;;;5.57;;
75437;SDS011;64015;49.392;15.582;2023-05-02T02:12:21;9.05;;;6.25;;
75437;SDS011;64015;49.392;15.582;2023-05-02T02:14:55;12.15;;;5.88;;
75437;SDS011;64015;49.392;15.582;2023-05-02T02:17:25;10.85;;;6.38;;
75437;SDS011;64015;49.392;15.582;2023-05-02T02:19:54;10.07;;;5.60;;
75437;SDS011;64015;49.392;15.582;2023-05-02T02:22:22;8.45;;;5.57;;
75437;SDS011;64015;49.392;15.582;2023-05-02T02:24:51;8.93;;;6.05;;
75437;SDS011;64015;49.392;15.582;2023-05-02T02:27:18;10.05;;;6.80;;
75437;SDS011;64015;49.392;15.582;2023-05-02T02:29:45;11.25;;;6.50;;
75437;SDS011;64015;49.392;15.582;2023-05-02T02:32:10;9.27;;;6.38;;
75437;SDS011;64015;49.392;15.582;2023-05-02T02:34:36;13.48;;;6.50;;
75437;SDS011;64015;49.392;15.582;2023-05-02T02:37:25;9.27;;;6.15;;
75437;SDS011;64015;49.392;15.582;2023-05-02T02:43:11;9.68;;;6.50;;
75437;SDS011;64015;49.392;15.582;2023-05-02T02:48:35;9.82;;;6.35;;
75437;SDS011;64015;49.392;15.582;2023-05-02T02:51:11;9.23;;;6.75;;
75437;SDS011;64015;49.392;15.582;2023-05-02T02:56:45;11.35;;;5.95;;
75437;SDS011;64015;49.392;15.582;2023-05-02T02:59:14;10.68;;;5.45;;
75437;SDS011;64015;49.392;15.582;2023-05-02T03:02:06;9.52;;;6.60;;
75437;SDS011;64015;49.392;15.582;2023-05-02T03:04:34;9.00;;;6.05;;
75437;SDS011;64015;49.392;15.582;2023-05-02T03:07:06;9.05;;;5.90;;
75437;SDS011;64015;49.392;15.582;2023-05-02T03:09:41;10.75;;;5.78;;
75437;SDS011;64015;49.392;15.582;2023-05-02T03:12:07;9.52;;;6.72;;
75437;SDS011;64015;49.392;15.582;2023-05-02T03:14:33;8.55;;;5.78;;
75437;SDS011;64015;49.392;15.582;2023-05-02T03:16:59;10.82;;;6.28;;
75437;SDS011;64015;49.392;15.582;2023-05-02T03:19:25;11.52;;;6.22;;
75437;SDS011;64015;49.392;15.582;2023-05-02T03:21:50;9.90;;;6.68;;
75437;SDS011;64015;49.392;15.582;2023-05-02T03:24:16;9.05;;;6.18;;
75437;SDS011;64015;49.392;15.582;2023-05-02T03:26:42;11.18;;;6.40;;
75437;SDS011;64015;49.392;15.582;2023-05-02T03:29:08;8.82;;;5.97;;
75437;SDS011;64015;49.392;15.582;2023-05-02T03:31:34;8.88;;;6.15;;
75437;SDS011;64015;49.392;15.582;2023-05-02T03:33:59;10.73;;;5.63;;
75437;SDS011;64015;49.392;15.582;2023-05-02T03:36:25;9.88;;;6.47;;
75437;SDS011;64015;49.392;15.582;2023-05-02T03:38:51;9.95;;;5.40;;
75437;SDS011;64015;49.392;15.582;2023-05-02T03:41:17;8.45;;;5.70;;
75437;SDS011;64015;49.392;15.582;2023-05-02T03:43:45;7.72;;;5.30;;
75437;SDS011;64015;49.392;15.582;2023-05-02T03:46:11;7.05;;;4.82;;
75437;SDS011;64015;49.392;15.582;2023-05-02T03:48:36;7.28;;;5.22;;
75437;SDS011;64015;49.392;15.582;2023-05-02T03:51:03;7.43;;;5.05;;
75437;SDS011;64015;49.392;15.582;2023-05-02T03:53:31;7.60;;;5.10;;
75437;SDS011;64015;49.392;15.582;2023-05-02T03:55:57;9.95;;;6.07;;
75437;SDS011;64015;49.392;15.582;2023-05-02T03:58:23;8.07;;;4.50;;
75437;SDS011;64015;49.392;15.582;2023-05-02T04:00:50;9.43;;;5.13;;
75437;SDS011;64015;49.392;15.582;2023-05-02T04:03:17;8.23;;;5.50;;
75437;SDS011;64015;49.392;15.582;2023-05-02T04:05:44;8.05;;;5.03;;
75437;SDS011;64015;49.392;15.582;2023-05-02T04:08:10;8.43;;;4.65;;
75437;SDS011;64015;49.392;15.582;2023-05-02T04:10:36;8.45;;;4.63;;
75437;SDS011;64015;49.392;15.582;2023-05-02T04:13:02;8.02;;;5.53;;
75437;SDS011;64015;49.392;15.582;2023-05-02T04:15:34;8.43;;;5.22;;
75437;SDS011;64015;49.392;15.582;2023-05-02T04:18:00;7.13;;;4.45;;
75437;SDS011;64015;49.392;15.582;2023-05-02T04:20:29;6.40;;;4.90;;
75437;SDS011;64015;49.392;15.582;2023-05-02T04:22:55;7.03;;;4.47;;
75437;SDS011;64015;49.392;15.582;2023-05-02T04:25:21;10.85;;;5.18;;
75437;SDS011;64015;49.392;15.582;2023-05-02T04:27:50;7.20;;;5.00;;
75437;SDS011;64015;49.392;15.582;2023-05-02T04:30:15;8.85;;;4.53;;
75437;SDS011;64015;49.392;15.582;2023-05-02T04:32:41;7.20;;;4.97;;
75437;SDS011;64015;49.392;15.582;2023-05-02T04:35:07;8.27;;;4.85;;
75437;SDS011;64015;49.392;15.582;2023-05-02T04:37:34;7.43;;;5.30;;
75437;SDS011;64015;49.392;15.582;2023-05-02T04:40:00;9.05;;;5.60;;
75437;SDS011;64015;49.392;15.582;2023-05-02T04:42:28;9.43;;;5.50;;
75437;SDS011;64015;49.392;15.582;2023-05-02T04:44:54;9.63;;;5.38;;
75437;SDS011;64015;49.392;15.582;2023-05-02T04:47:19;10.80;;;5.70;;
75437;SDS011;64015;49.392;15.582;2023-05-02T04:49:45;12.52;;;6.10;;
75437;SDS011;64015;49.392;15.582;2023-05-02T04:52:11;8.52;;;5.85;;
75437;SDS011;64015;49.392;15.582;2023-05-02T04:54:37;7.10;;;4.97;;
75437;SDS011;64015;49.392;15.582;2023-05-02T04:57:02;8.63;;;5.63;;
75437;SDS011;64015;49.392;15.582;2023-05-02T04:59:31;7.30;;;5.38;;
75437;SDS011;64015;49.392;15.582;2023-05-02T05:01:56;9.68;;;5.47;;
75437;SDS011;64015;49.392;15.582;2023-05-02T05:04:22;9.45;;;6.05;;
75437;SDS011;64015;49.392;15.582;2023-05-02T05:06:48;9.18;;;5.63;;
75437;SDS011;64015;49.392;15.582;2023-05-02T05:09:14;9.27;;;5.60;;
75437;SDS011;64015;49.392;15.582;2023-05-02T05:11:40;10.57;;;6.50;;
75437;SDS011;64015;49.392;15.582;2023-05-02T05:14:08;10.52;;;5.15;;
75437;SDS011;64015;49.392;15.582;2023-05-02T05:16:33;13.68;;;6.43;;
75437;SDS011;64015;49.392;15.582;2023-05-02T05:18:59;9.13;;;6.15;;
75437;SDS011;64015;49.392;15.582;2023-05-02T05:21:25;9.18;;;5.85;;
75437;SDS011;64015;49.392;15.582;2023-05-02T05:23:51;8.52;;;5.70;;
75437;SDS011;64015;49.392;15.582;2023-05-02T05:26:17;10.15;;;5.20;;
75437;SDS011;64015;49.392;15.582;2023-05-02T05:28:43;9.77;;;5.70;;
75437;SDS011;64015;49.392;15.582;2023-05-02T05:31:09;9.95;;;5.25;;
75437;SDS011;64015;49.392;15.582;2023-05-02T05:33:37;9.57;;;6.32;;
75437;SDS011;64015;49.392;15.582;2023-05-02T05:36:10;8.10;;;5.80;;
75437;SDS011;64015;49.392;15.582;2023-05-02T05:38:39;11.73;;;6.30;;
75437;SDS011;64015;49.392;15.582;2023-05-02T05:41:05;10.10;;;6.63;;
75437;SDS011;64015;49.392;15.582;2023-05-02T05:43:32;9.38;;;5.70;;
75437;SDS011;64015;49.392;15.582;2023-05-02T05:45:58;9.43;;;5.25;;
75437;SDS011;64015;49.392;15.582;2023-05-02T05:48:24;9.43;;;6.43;;
75437;SDS011;64015;49.392;15.582;2023-05-02T05:50:49;11.57;;;6.57;;
75437;SDS011;64015;49.392;15.582;2023-05-02T05:53:16;9.77;;;5.80;;
75437;SDS011;64015;49.392;15.582;2023-05-02T05:55:43;9.80;;;5.80;;
75437;SDS011;64015;49.392;15.582;2023-05-02T05:58:09;11.40;;;6.30;;
75437;SDS011;64015;49.392;15.582;2023-05-02T06:00:35;10.18;;;6.30;;
75437;SDS011;64015;49.392;15.582;2023-05-02T06:03:02;11.82;;;6.10;;
75437;SDS011;64015;49.392;15.582;2023-05-02T06:05:28;10.80;;;6.30;;
75437;SDS011;64015;49.392;15.582;2023-05-02T06:07:55;10.05;;;5.90;;
75437;SDS011;64015;49.392;15.582;2023-05-02T06:10:23;13.48;;;6.07;;
75437;SDS011;64015;49.392;15.582;2023-05-02T06:12:49;10.82;;;5.57;;
75437;SDS011;64015;49.392;15.582;2023-05-02T06:15:15;10.10;;;6.15;;
75437;SDS011;64015;49.392;15.582;2023-05-02T06:17:41;9.30;;;5.50;;
75437;SDS011;64015;49.392;15.582;2023-05-02T06:20:06;10.30;;;6.43;;
75437;SDS011;64015;49.392;15.582;2023-05-02T06:22:33;9.93;;;6.60;;
75437;SDS011;64015;49.392;15.582;2023-05-02T06:24:58;9.95;;;6.03;;
75437;SDS011;64015;49.392;15.582;2023-05-02T06:27:25;9.85;;;6.32;;
75437;SDS011;64015;49.392;15.582;2023-05-02T06:29:51;8.70;;;5.90;;
75437;SDS011;64015;49.392;15.582;2023-05-02T06:32:17;8.35;;;5.40;;
75437;SDS011;64015;49.392;15.582;2023-05-02T06:34:43;9.68;;;5.68;;
75437;SDS011;64015;49.392;15.582;2023-05-02T06:37:09;7.07;;;4.55;;
75437;SDS011;64015;49.392;15.582;2023-05-02T06:39:35;7.60;;;4.93;;
75437;SDS011;64015;49.392;15.582;2023-05-02T06:42:01;13.65;;;6.88;;
75437;SDS011;64015;49.392;15.582;2023-05-02T06:44:26;9.10;;;5.68;;
75437;SDS011;64015;49.392;15.582;2023-05-02T06:46:53;8.48;;;5.72;;
75437;SDS011;64015;49.392;15.582;2023-05-02T06:49:20;9.77;;;5.78;;
75437;SDS011;64015;49.392;15.582;2023-05-02T06:51:51;8.85;;;6.10;;
75437;SDS011;64015;49.392;15.582;2023-05-02T06:54:17;8.38;;;4.47;;
75437;SDS011;64015;49.392;15.582;2023-05-02T06:56:42;10.75;;;5.40;;
75437;SDS011;64015;49.392;15.582;2023-05-02T06:59:08;9.77;;;6.32;;
75437;SDS011;64015;49.392;15.582;2023-05-02T07:01:34;8.35;;;5.70;;
75437;SDS011;64015;49.392;15.582;2023-05-02T07:04:00;9.43;;;4.93;;
75437;SDS011;64015;49.392;15.582;2023-05-02T07:06:28;9.27;;;5.78;;
75437;SDS011;64015;49.392;15.582;2023-05-02T07:08:55;9.23;;;5.53;;
75437;SDS011;64015;49.392;15.582;2023-05-02T07:11:21;7.13;;;5.35;;
75437;SDS011;64015;49.392;15.582;2023-05-02T07:13:48;10.27;;;5.93;;
75437;SDS011;64015;49.392;15.582;2023-05-02T07:16:14;9.88;;;6.35;;
75437;SDS011;64015;49.392;15.582;2023-05-02T07:18:41;9.98;;;5.82;;
75437;SDS011;64015;49.392;15.582;2023-05-02T07:21:10;8.52;;;5.32;;
75437;SDS011;64015;49.392;15.582;2023-05-02T07:23:36;9.05;;;5.50;;
75437;SDS011;64015;49.392;15.582;2023-05-02T07:26:02;9.10;;;6.07;;
75437;SDS011;64015;49.392;15.582;2023-05-02T07:28:29;10.05;;;5.78;;
75437;SDS011;64015;49.392;15.582;2023-05-02T07:30:55;8.73;;;5.70;;
75437;SDS011;64015;49.392;15.582;2023-05-02T07:33:21;10.65;;;5.80;;
75437;SDS011;64015;49.392;15.582;2023-05-02T07:35:49;8.30;;;5.65;;
75437;SDS011;64015;49.392;15.582;2023-05-02T07:38:15;10.80;;;6.18;;
75437;SDS011;64015;49.392;15.582;2023-05-02T07:40:41;8.85;;;5.75;;
75437;SDS011;64015;49.392;15.582;2023-05-02T07:43:08;10.82;;;6.07;;
75437;SDS011;64015;49.392;15.582;2023-05-02T07:45:34;10.10;;;6.05;;
75437;SDS011;64015;49.392;15.582;2023-05-02T07:48:00;9.98;;;6.25;;
75437;SDS011;64015;49.392;15.582;2023-05-02T07:50:26;7.60;;;5.95;;
75437;SDS011;64015;49.392;15.582;2023-05-02T07:52:53;11.30;;;6.10;;
75437;SDS011;64015;49.392;15.582;2023-05-02T07:55:21;10.00;;;6.63;;
75437;SDS011;64015;49.392;15.582;2023-05-02T07:57:47;10.60;;;6.53;;
75437;SDS011;64015;49.392;15.582;2023-05-02T08:00:13;10.73;;;5.78;;
75437;SDS011;64015;49.392;15.582;2023-05-02T08:02:40;10.25;;;6.88;;
75437;SDS011;64015;49.392;15.582;2023-05-02T08:05:07;10.80;;;6.20;;
75437;SDS011;64015;49.392;15.582;2023-05-02T08:07:33;8.63;;;6.22;;
75437;SDS011;64015;49.392;15.582;2023-05-02T08:12:26;8.60;;;5.88;;
75437;SDS011;64015;49.392;15.582;2023-05-02T08:14:52;8.05;;;6.13;;
75437;SDS011;64015;49.392;15.582;2023-05-02T08:17:18;13.90;;;6.40;;
75437;SDS011;64015;49.392;15.582;2023-05-02T08:22:11;9.82;;;6.63;;
75437;SDS011;64015;49.392;15.582;2023-05-02T08:24:37;8.88;;;7.35;;
75437;SDS011;64015;49.392;15.582;2023-05-02T08:27:03;7.50;;;6.22;;
75437;SDS011;64015;49.392;15.582;2023-05-02T08:29:30;12.75;;;8.23;;
75437;SDS011;64015;49.392;15.582;2023-05-02T08:31:55;12.65;;;7.45;;
75437;SDS011;64015;49.392;15.582;2023-05-02T08:34:21;9.65;;;7.32;;
75437;SDS011;64015;49.392;15.582;2023-05-02T08:36:47;10.77;;;7.72;;
75437;SDS011;64015;49.392;15.582;2023-05-02T08:39:13;9.05;;;6.90;;
75437;SDS011;64015;49.392;15.582;2023-05-02T08:41:39;9.30;;;7.00;;
75437;SDS011;64015;49.392;15.582;2023-05-02T08:44:06;11.00;;;7.70;;
75437;SDS011;64015;49.392;15.582;2023-05-02T08:46:39;11.25;;;7.95;;
75437;SDS011;64015;49.392;15.582;2023-05-02T08:49:08;12.18;;;7.38;;
75437;SDS011;64015;49.392;15.582;2023-05-02T08:51:36;11.18;;;6.28;;
75437;SDS011;64015;49.392;15.582;2023-05-02T08:54:03;10.70;;;8.00;;
75437;SDS011;64015;49.392;15.582;2023-05-02T08:56:31;13.32;;;8.25;;
75437;SDS011;64015;49.392;15.582;2023-05-02T08:58:57;14.60;;;8.55;;
75437;SDS011;64015;49.392;15.582;2023-05-02T09:01:23;12.63;;;8.68;;
75437;SDS011;64015;49.392;15.582;2023-05-02T09:03:55;11.10;;;8.20;;
75437;SDS011;64015;49.392;15.582;2023-05-02T09:06:25;13.95;;;9.30;;
75437;SDS011;64015;49.392;15.582;2023-05-02T09:08:51;10.93;;;8.38;;
75437;SDS011;64015;49.392;15.582;2023-05-02T09:11:17;15.48;;;8.95;;
75437;SDS011;64015;49.392;15.582;2023-05-02T09:13:44;13.30;;;9.02;;
75437;SDS011;64015;49.392;15.582;2023-05-02T09:16:11;11.20;;;8.00;;
75437;SDS011;64015;49.392;15.582;2023-05-02T09:18:48;11.45;;;8.00;;
75437;SDS011;64015;49.392;15.582;2023-05-02T09:21:18;13.15;;;8.93;;
75437;SDS011;64015;49.392;15.582;2023-05-02T09:24:22;11.57;;;8.40;;
75437;SDS011;64015;49.392;15.582;2023-05-02T09:29:41;11.00;;;7.82;;
75437;SDS011;64015;49.392;15.582;2023-05-02T09:32:10;11.82;;;7.65;;
75437;SDS011;64015;49.392;15.582;2023-05-02T09:34:38;10.13;;;7.35;;
75437;SDS011;64015;49.392;15.582;2023-05-02T09:37:04;11.43;;;7.43;;
75437;SDS011;64015;49.392;15.582;2023-05-02T09:39:30;10.18;;;6.55;;
75437;SDS011;64015;49.392;15.582;2023-05-02T09:45:20;10.00;;;8.23;;
75437;SDS011;64015;49.392;15.582;2023-05-02T09:47:47;10.77;;;7.53;;
75437;SDS011;64015;49.392;15.582;2023-05-02T09:50:31;11.88;;;8.48;;
75437;SDS011;64015;49.392;15.582;2023-05-02T09:53:04;12.93;;;8.13;;
75437;SDS011;64015;49.392;15.582;2023-05-02T09:55:32;9.90;;;7.00;;
75437;SDS011;64015;49.392;15.582;2023-05-02T09:57:58;11.10;;;8.05;;
75437;SDS011;64015;49.392;15.582;2023-05-02T10:00:59;14.32;;;8.52;;
75437;SDS011;64015;49.392;15.582;2023-05-02T10:03:17;12.02;;;7.60;;
75437;SDS011;64015;49.392;15.582;2023-05-02T10:05:45;12.07;;;8.13;;
75437;SDS011;64015;49.392;15.582;2023-05-02T10:08:15;13.05;;;8.60;;
75437;SDS011;64015;49.392;15.582;2023-05-02T10:10:44;13.65;;;7.95;;
75437;SDS011;64015;49.392;15.582;2023-05-02T10:13:15;12.32;;;8.80;;
75437;SDS011;64015;49.392;15.582;2023-05-02T10:15:48;9.95;;;7.35;;
75437;SDS011;64015;49.392;15.582;2023-05-02T10:21:19;9.82;;;6.90;;
75437;SDS011;64015;49.392;15.582;2023-05-02T10:23:51;11.52;;;7.78;;
75437;SDS011;64015;49.392;15.582;2023-05-02T10:26:36;9.75;;;5.63;;
75437;SDS011;64015;49.392;15.582;2023-05-02T10:29:02;11.75;;;6.28;;
75437;SDS011;64015;49.392;15.582;2023-05-02T10:31:31;12.63;;;6.70;;
75437;SDS011;64015;49.392;15.582;2023-05-02T10:34:04;10.38;;;6.53;;
75437;SDS011;64015;49.392;15.582;2023-05-02T10:36:31;9.43;;;6.30;;
75437;SDS011;64015;49.392;15.582;2023-05-02T10:38:57;10.65;;;6.07;;
75437;SDS011;64015;49.392;15.582;2023-05-02T10:41:25;11.15;;;6.22;;
75437;SDS011;64015;49.392;15.582;2023-05-02T10:43:53;9.20;;;6.25;;
75437;SDS011;64015;49.392;15.582;2023-05-02T10:46:30;11.40;;;6.60;;
75437;SDS011;64015;49.392;15.582;2023-05-02T10:49:06;8.60;;;6.22;;
75437;SDS011;64015;49.392;15.582;2023-05-02T10:51:38;10.90;;;6.75;;
75437;SDS011;64015;49.392;15.582;2023-05-02T10:54:17;9.05;;;5.43;;
75437;SDS011;64015;49.392;15.582;2023-05-02T10:59:28;8.80;;;5.18;;
75437;SDS011;64015;49.392;15.582;2023-05-02T11:01:56;7.13;;;4.15;;
75437;SDS011;64015;49.392;15.582;2023-05-02T11:04:22;6.57;;;4.22;;
75437;SDS011;64015;49.392;15.582;2023-05-02T11:11:58;6.75;;;4.30;;
75437;SDS011;64015;49.392;15.582;2023-05-02T11:17:11;8.70;;;5.10;;
75437;SDS011;64015;49.392;15.582;2023-05-02T11:24:58;6.75;;;5.03;;
75437;SDS011;64015;49.392;15.582;2023-05-02T11:29:54;7.57;;;5.03;;
75437;SDS011;64015;49.392;15.582;2023-05-02T11:35:22;7.18;;;5.07;;
75437;SDS011;64015;49.392;15.582;2023-05-02T11:37:59;8.80;;;5.22;;
75437;SDS011;64015;49.392;15.582;2023-05-02T11:40:27;10.02;;;5.57;;
75437;SDS011;64015;49.392;15.582;2023-05-02T11:42:55;7.45;;;5.20;;
75437;SDS011;64015;49.392;15.582;2023-05-02T11:45:21;9.40;;;5.43;;
75437;SDS011;64015;49.392;15.582;2023-05-02T11:47:58;8.25;;;5.38;;
75437;SDS011;64015;49.392;15.582;2023-05-02T11:50:24;9.38;;;6.40;;
75437;SDS011;64015;49.392;15.582;2023-05-02T11:52:52;7.60;;;5.90;;
75437;SDS011;64015;49.392;15.582;2023-05-02T11:55:18;10.48;;;6.13;;
75437;SDS011;64015;49.392;15.582;2023-05-02T11:57:43;9.90;;;6.20;;
75437;SDS011;64015;49.392;15.582;2023-05-02T12:00:12;7.72;;;5.45;;
75437;SDS011;64015;49.392;15.582;2023-05-02T12:02:44;7.65;;;5.72;;
75437;SDS011;64015;49.392;15.582;2023-05-02T12:05:12;9.10;;;5.55;;
75437;SDS011;64015;49.392;15.582;2023-05-02T12:07:40;8.40;;;5.45;;
75437;SDS011;64015;49.392;15.582;2023-05-02T12:10:10;12.07;;;6.03;;
75437;SDS011;64015;49.392;15.582;2023-05-02T12:12:38;7.80;;;5.07;;
75437;SDS011;64015;49.392;15.582;2023-05-02T12:15:08;7.85;;;5.65;;
75437;SDS011;64015;49.392;15.582;2023-05-02T12:17:38;7.30;;;5.00;;
75437;SDS011;64015;49.392;15.582;2023-05-02T12:20:08;9.73;;;5.60;;
75437;SDS011;64015;49.392;15.582;2023-05-02T12:22:42;8.25;;;5.05;;
75437;SDS011;64015;49.392;15.582;2023-05-02T12:25:08;12.43;;;5.93;;
75437;SDS011;64015;49.392;15.582;2023-05-02T12:27:34;9.20;;;5.00;;
75437;SDS011;64015;49.392;15.582;2023-05-02T12:30:02;9.93;;;6.22;;
75437;SDS011;64015;49.392;15.582;2023-05-02T12:32:28;8.40;;;5.28;;
75437;SDS011;64015;49.392;15.582;2023-05-02T12:34:58;9.27;;;6.00;;
75437;SDS011;64015;49.392;15.582;2023-05-02T12:37:26;10.52;;;6.20;;
75437;SDS011;64015;49.392;15.582;2023-05-02T12:40:01;13.50;;;7.40;;
75437;SDS011;64015;49.392;15.582;2023-05-02T12:42:27;8.70;;;6.03;;
75437;SDS011;64015;49.392;15.582;2023-05-02T12:44:53;8.82;;;5.68;;
75437;SDS011;64015;49.392;15.582;2023-05-02T12:47:21;9.63;;;6.20;;
75437;SDS011;64015;49.392;15.582;2023-05-02T12:49:47;7.63;;;5.75;;
75437;SDS011;64015;49.392;15.582;2023-05-02T12:52:17;7.93;;;5.70;;
75437;SDS011;64015;49.392;15.582;2023-05-02T12:57:10;8.73;;;6.28;;
75437;SDS011;64015;49.392;15.582;2023-05-02T12:59:50;11.30;;;5.80;;
75437;SDS011;64015;49.392;15.582;2023-05-02T13:02:19;9.18;;;5.80;;
75437;SDS011;64015;49.392;15.582;2023-05-02T13:04:45;7.95;;;5.50;;
75437;SDS011;64015;49.392;15.582;2023-05-02T13:07:11;7.22;;;4.45;;
75437;SDS011;64015;49.392;15.582;2023-05-02T13:09:37;9.00;;;4.90;;
75437;SDS011;64015;49.392;15.582;2023-05-02T13:12:03;8.20;;;5.80;;
75437;SDS011;64015;49.392;15.582;2023-05-02T13:14:30;7.72;;;5.45;;
75437;SDS011;64015;49.392;15.582;2023-05-02T13:16:56;7.72;;;5.20;;
75437;SDS011;64015;49.392;15.582;2023-05-02T13:19:22;7.88;;;4.50;;
75437;SDS011;64015;49.392;15.582;2023-05-02T13:21:51;8.02;;;5.32;;
75437;SDS011;64015;49.392;15.582;2023-05-02T13:24:16;11.07;;;5.35;;
75437;SDS011;64015;49.392;15.582;2023-05-02T13:26:42;9.27;;;6.50;;
75437;SDS011;64015;49.392;15.582;2023-05-02T13:29:08;9.20;;;5.80;;
75437;SDS011;64015;49.392;15.582;2023-05-02T13:31:36;9.27;;;5.50;;
75437;SDS011;64015;49.392;15.582;2023-05-02T13:34:04;9.35;;;5.88;;
75437;SDS011;64015;49.392;15.582;2023-05-02T13:36:31;8.68;;;4.85;;
75437;SDS011;64015;49.392;15.582;2023-05-02T13:38:57;7.55;;;5.07;;
75437;SDS011;64015;49.392;15.582;2023-05-02T13:41:22;7.18;;;5.55;;
75437;SDS011;64015;49.392;15.582;2023-05-02T13:43:51;8.20;;;4.55;;
75437;SDS011;64015;49.392;15.582;2023-05-02T13:46:17;6.18;;;5.15;;
75437;SDS011;64015;49.392;15.582;2023-05-02T13:48:43;8.18;;;5.78;;
75437;SDS011;64015;49.392;15.582;2023-05-02T13:51:09;8.45;;;4.88;;
75437;SDS011;64015;49.392;15.582;2023-05-02T13:53:34;8.90;;;5.03;;
75437;SDS011;64015;49.392;15.582;2023-05-02T13:56:00;8.68;;;5.03;;
75437;SDS011;64015;49.392;15.582;2023-05-02T13:58:27;10.23;;;5.25;;
75437;SDS011;64015;49.392;15.582;2023-05-02T14:00:52;7.55;;;5.47;;
75437;SDS011;64015;49.392;15.582;2023-05-02T14:03:18;7.82;;;4.53;;
75437;SDS011;64015;49.392;15.582;2023-05-02T14:05:44;7.70;;;5.15;;
75437;SDS011;64015;49.392;15.582;2023-05-02T14:08:10;7.32;;;4.40;;
75437;SDS011;64015;49.392;15.582;2023-05-02T14:10:36;8.25;;;4.88;;
75437;SDS011;64015;49.392;15.582;2023-05-02T14:13:03;7.15;;;4.53;;
75437;SDS011;64015;49.392;15.582;2023-05-02T14:15:30;6.35;;;4.00;;
75437;SDS011;64015;49.392;15.582;2023-05-02T14:17:55;6.95;;;4.35;;
75437;SDS011;64015;49.392;15.582;2023-05-02T14:20:21;6.70;;;4.10;;
75437;SDS011;64015;49.392;15.582;2023-05-02T14:22:50;7.80;;;4.70;;
75437;SDS011;64015;49.392;15.582;2023-05-02T14:25:18;6.10;;;3.95;;
75437;SDS011;64015;49.392;15.582;2023-05-02T14:27:45;7.15;;;4.60;;
75437;SDS011;64015;49.392;15.582;2023-05-02T14:30:11;7.57;;;4.90;;
75437;SDS011;64015;49.392;15.582;2023-05-02T14:32:37;5.85;;;4.72;;
75437;SDS011;64015;49.392;15.582;2023-05-02T14:35:03;8.93;;;5.03;;
75437;SDS011;64015;49.392;15.582;2023-05-02T14:37:28;6.15;;;4.65;;
75437;SDS011;64015;49.392;15.582;2023-05-02T14:39:54;7.25;;;5.68;;
75437;SDS011;64015;49.392;15.582;2023-05-02T14:42:23;8.27;;;6.45;;
75437;SDS011;64015;49.392;15.582;2023-05-02T14:44:49;7.63;;;5.38;;
75437;SDS011;64015;49.392;15.582;2023-05-02T14:47:19;9.25;;;5.95;;
75437;SDS011;64015;49.392;15.582;2023-05-02T14:49:45;9.50;;;6.35;;
75437;SDS011;64015;49.392;15.582;2023-05-02T14:52:11;8.55;;;5.70;;
75437;SDS011;64015;49.392;15.582;2023-05-02T14:54:36;8.68;;;5.53;;
75437;SDS011;64015;49.392;15.582;2023-05-02T14:57:02;9.38;;;5.15;;
75437;SDS011;64015;49.392;15.582;2023-05-02T14:59:28;9.50;;;5.25;;
75437;SDS011;64015;49.392;15.582;2023-05-02T15:01:54;8.10;;;5.10;;
75437;SDS011;64015;49.392;15.582;2023-05-02T15:04:20;9.32;;;5.50;;
75437;SDS011;64015;49.392;15.582;2023-05-02T15:06:47;8.43;;;6.45;;
75437;SDS011;64015;49.392;15.582;2023-05-02T15:09:13;7.90;;;5.63;;
75437;SDS011;64015;49.392;15.582;2023-05-02T15:11:38;7.78;;;4.60;;
75437;SDS011;64015;49.392;15.582;2023-05-02T15:14:04;8.30;;;4.90;;
75437;SDS011;64015;49.392;15.582;2023-05-02T15:16:30;7.70;;;5.28;;
75437;SDS011;64015;49.392;15.582;2023-05-02T15:18:56;6.60;;;5.10;;
75437;SDS011;64015;49.392;15.582;2023-05-02T15:21:21;7.75;;;5.20;;
75437;SDS011;64015;49.392;15.582;2023-05-02T15:23:47;8.75;;;5.07;;
75437;SDS011;64015;49.392;15.582;2023-05-02T15:26:13;7.05;;;5.15;;
75437;SDS011;64015;49.392;15.582;2023-05-02T15:28:39;9.32;;;5.22;;
75437;SDS011;64015;49.392;15.582;2023-05-02T15:31:04;7.45;;;4.82;;